Sierra Nevada Aquatic Research Lab (SNARL) Reserve, Santa Monica Mtns, California Weather observations

Data are for 10 minute period ending at time listed.
 Day   Time   Solar   Ave.   Ave.  Ave.  Vector  Max.   Baro.   Total    
  of    of     Rad.   Air    Rel.  Wind   Wind   Wind  Press.  Precip.   
Year   Day            Temp.  Hum.  Speed  Dir.   Gust                    
2014   (PST)  Kw/m2    F      %     mph   deg.    mph    mb.     in.     
-------------------------------------------------------------------------
 274    6:20   0.04   39.5    64    8.4   258    13.1   785.7    0.00 
 274    6:30   0.07   41.1    59    7.8   269    13.4   785.7    0.00 
 274    6:40   0.11   41.7    58    7.3   273    12.3   785.8    0.00 
 274    6:50   0.14   42.4    57    7.3   277    11.1   785.8    0.00 
 274    7:00   0.17   42.7    57    7.1   277    11.1   785.9    0.00 
 274    7:10   0.21   42.9    57    7.8   274    12.5   786.0    0.00 
 274    7:20   0.23   43.6    55    9.4   271    14.0   786.1    0.00 
 274    7:30   0.28   44.6    53   10.1   266    15.9   786.2    0.00 
 274    7:40   0.32   44.9    52    9.5   268    13.7   786.2    0.00 
 274    7:50   0.35   46.0    50    8.5   274    13.2   786.2    0.00 
 274    8:00   0.39   46.3    49    8.3   278    13.2   786.1    0.00 
 274    8:10   0.42   46.5    48    8.4   285    14.0   786.0    0.00 
 274    8:20   0.46   47.4    47    6.4   293    11.0   786.0    0.00 
 274    8:30   0.49   47.9    46    6.3   311    11.8   786.0    0.00 
 274    8:40   0.52   48.6    46    6.2   294    10.4   786.0    0.00 
 274    8:50   0.55   49.6    44    4.8   313    11.0   786.0    0.00 
 274    9:00   0.58   50.8    42    3.7   253     8.8   785.9    0.00 
 274    9:10   0.60   51.8    40    4.6   287     8.4   785.8    0.00 
 274    9:20   0.63   52.1    39    3.1   313     6.3   785.8    0.00 
 274    9:30   0.65   53.0    37    3.4   287     8.6   785.8    0.00 
 274    9:40   0.68   54.6    35    3.0   294     8.0   785.9    0.00 
 274    9:50   0.70   53.8    34    3.5   267     7.0   785.9    0.00 
 274   10:00   0.72   54.9    32    2.5   267     6.5   786.0    0.00 
 274   10:10   0.74   55.6    29    3.3   344     7.4   786.0    0.00 
 274   10:20   0.76   56.1    27    2.9   286     7.2   786.0    0.00 
 274   10:30   0.78   57.2    27    3.3   262     6.7   786.0    0.00 
 274   10:40   0.79   58.4    24    4.2   267     9.8   786.0    0.00 
 274   10:50   0.80   59.2    23    3.9   259     7.5   786.0    0.00 
 274   11:00   0.81   59.6    21    2.7   351     7.5   786.0    0.00 
 274   11:10   0.82   59.4    20    3.0     8     6.1   786.0    0.00 
 274   11:20   0.83   60.1    19    4.1    33     6.9   786.0    0.00 
 274   11:30   0.83   60.5    17    3.2    72     6.2   785.9    0.00 
 274   11:40   0.83   61.1    16    2.8    48     6.9   785.9    0.00 
 274   11:50   0.83   61.2    16    3.0    62     9.9   785.8    0.00 
 274   12:00   0.83   62.3    16    4.5   338     7.5   785.8    0.00 
 274   12:10   0.83   62.8    15    2.3   219     5.8   785.7    0.00 
 274   12:20   0.82   63.1    15    2.6   114     6.9   785.7    0.00 
 274   12:30   0.82   63.4    14    3.9   101     7.1   785.6    0.00 
 274   12:40   0.81   63.4    14    3.1    96     7.8   785.5    0.00 
 274   12:50   0.80   64.9    14    2.0   189     5.3   785.5    0.00 
 274   13:00   0.80   65.4    14    3.6   205    14.1   785.4    0.00 
 274   13:10   0.77   65.3    13    4.5   359    13.4   785.4    0.00 
 274   13:20   0.75   64.9    14    5.2    74    10.6   785.2    0.00 
 274   13:30   0.73   65.7    14    4.9    47     9.6   785.2    0.00 
 274   13:40   0.71   65.2    14    4.8    65    10.3   785.2    0.00 
 274   13:50   0.69   65.1    14    4.3    92    10.4   785.3    0.00 
 274   14:00   0.67   65.6    14    4.0    43     9.3   785.3    0.00 
 274   14:10   0.65   65.2    13    5.0    98    13.5   785.2    0.00 
 274   14:20   0.62   65.9    14    4.5    55     9.0   785.3    0.00 
 274   14:30   0.59   65.3    15    7.2    94    15.0   785.4    0.00 
 274   14:40   0.56   65.0    14    9.5   103    16.1   785.3    0.00 
 274   14:50   0.53   65.0    15    7.8   104    13.4   785.3    0.00 
 274   15:00   0.51   64.5    14    7.8    99    12.6   785.3    0.00 
 274   15:10   0.47   64.7    15    8.4   102    14.8   785.4    0.00 
 274   15:20   0.44   64.7    15    6.7    95    14.5   785.4    0.00 
 274   15:30   0.41   64.2    17   10.4    96    15.3   785.4    0.00 
 274   15:40   0.37   64.2    18    8.8   100    14.5   785.4    0.00 
 274   15:50   0.34   63.6    18    8.7    96    12.3   785.5    0.00 
 274   16:00   0.30   63.5    18    9.0   108    12.6   785.5    0.00 
 274   16:10   0.27   63.4    17    8.8   118    13.3   785.5    0.00 
 274   16:20   0.23   62.7    18    9.0   109    13.5   785.5    0.00 
 274   16:30   0.20   62.5    18    8.3   106    11.2   785.6    0.00 
 274   16:40   0.17   61.8    18    8.3   106    10.6   785.6    0.00 
 274   16:50   0.13   61.0    18    8.9   120    13.1   785.6    0.00 
 274   17:00   0.10   60.4    18    7.8   119    10.7   785.6    0.00 
 274   17:10   0.01   57.8    20    7.6   118    10.2   785.6    0.00 
 274   17:20   0.01   54.7    22    8.3   128    10.4   785.6    0.00 
 274   17:30   0.00   53.2    24    4.2   140     8.6   785.5    0.00 
 274   17:40   0.00   50.8    26    4.1   242     5.9   785.5    0.00 
 274   17:50   0.00   49.6    27    3.7   231     5.4   785.6    0.00 
 274   18:00   0.00   48.0    30    2.8   274     6.2   785.6    0.00 
 274   18:10   0.00   48.2    24    5.6   263     8.2   785.8    0.00 
 274   18:20   0.00   49.3    22    6.7   263     8.5   785.9    0.00 
 274   18:30   0.00   49.1    22    5.5   257     7.4   786.1    0.00 
 274   18:40   0.00   47.4    24    4.9   257     6.5   786.2    0.00 
 274   18:50   0.00   46.7    26    4.5   263     6.9   786.4    0.00 
 274   19:00   0.00   45.7    28    2.1   248     3.9   786.5    0.00 
 274   19:10   0.00   44.1    32    2.5    12     4.7   786.7    0.00 
 274   19:20   0.00   41.1    34    1.2   313     5.0   786.9    0.00 
 274   19:30   0.00   39.2    36    2.3   265     2.9   787.0    0.00 
 274   19:40   0.00   36.4    42    2.5   301     3.7   787.2    0.00 
 274   19:50   0.00   35.4    46    2.4   317     5.2   787.4    0.00 
 274   20:00   0.00   35.9    42    1.1   314     4.0   787.6    0.00 
 274   20:10   0.00   36.8    42    0.2   175     1.2   787.6    0.00 
 274   20:20   0.00   36.4    43    0.5   166     1.9   787.7    0.00 
 274   20:30   0.00   36.0    45    0.6    42     1.5   787.8    0.00 
 274   20:40   0.00   35.5    45    0.5   126     1.6   787.8    0.00 
 274   20:50   0.00   35.8    44    0.5    34     1.8   788.0    0.00 
 274   21:00   0.00   34.7    46    2.9   341     6.1   788.0    0.00 
 274   21:10   0.00   34.0    46    3.0   263     6.6   788.1    0.00 
 274   21:20   0.00   36.7    41    5.2   242     8.6   788.2    0.00 
 274   21:30   0.00   41.5    34    5.3   246    10.1   788.2    0.00 
 274   21:40   0.00   42.8    34    2.3   300     5.4   788.2    0.00 
 274   21:50   0.00   40.7    36    1.7   322     5.0   788.3    0.00 
 274   22:00   0.00   37.8    42    1.2   269     3.1   788.3    0.00 
 274   22:10   0.00   36.6    42    0.9   108     2.2   788.3    0.00 
 274   22:20   0.00   35.5    44    0.5   281     2.3   788.4    0.00 
 274   22:30   0.00   34.9    46    1.5   222     3.4   788.4    0.00 
 274   22:40   0.00   33.7    48    4.1   254     6.0   788.4    0.00 
 274   22:50   0.00   34.1    45    4.4   237     5.8   788.4    0.00 
 274   23:00   0.00   35.6    44    5.6   231     7.9   788.4    0.00 
 274   23:10   0.00   37.7    42    4.5   222     7.5   788.4    0.00 
 274   23:20   0.00   38.9    41    2.8   350     4.6   788.4    0.00 
 274   23:30   0.00   38.3    42    2.6   315     4.3   788.4    0.00 
 274   23:40   0.00   36.2    45    3.4   323     5.2   788.4    0.00 
 274   23:50   0.00   33.9    48    1.1   300     3.4   788.4    0.00 
 275    0:00   0.00   31.1    53    0.8   288     3.4   788.4    0.00 
 275    0:10   0.00   29.8    56    1.2    85     3.1   788.4    0.00 
 275    0:20   0.00   29.1    55    0.7   131     2.2   788.5    0.00 
 275    0:30   0.00   27.7    58    1.5   132     2.4   788.5    0.00 
 275    0:40   0.00   28.2    57    1.5   233     3.7   788.5    0.00 
 275    0:50   0.00   27.8    61    1.6   281     2.6   788.6    0.00 
 275    1:00   0.00   27.7    60    0.5   266     2.0   788.6    0.00 
 275    1:10   0.00   27.8    65    0.9   271     2.3   788.6    0.00 
 275    1:20   0.00   27.4    64    0.0   336     0.1   788.7    0.00 
 275    1:30   0.00   27.1    63    0.9   263     2.1   788.7    0.00 
 275    1:40   0.00   26.1    66    0.4   249     2.1   788.8    0.00 
 275    1:50   0.00   25.4    65    0.1   299     1.2   788.9    0.00 
 275    2:00   0.00   25.1    64    0.4   266     1.7   788.9    0.00 
 275    2:10   0.00   25.7    68    1.5   275     2.2   788.8    0.00 
 275    2:20   0.00   23.8    68    1.0   271     2.3   788.8    0.00 
 275    2:30   0.00   22.7    68    1.4   200     2.1   788.8    0.00 
 275    2:40   0.00   22.9    68    0.6   238     1.8   788.8    0.00 
 275    2:50   0.00   25.1    68    1.4   286     2.4   788.8    0.00 
 275    3:00   0.00   24.8    69    0.8   321     2.5   788.8    0.00 
 275    3:10   0.00   24.5    68    0.8   183     1.8   788.8    0.00 
 275    3:20   0.00   24.2    71    1.6   352     2.6   788.8    0.00 
 275    3:30   0.00   23.7    71    0.3   304     1.5   788.8    0.00 
 275    3:40   0.00   23.4    69    0.4   268     1.2   788.9    0.00 
 275    3:50   0.00   23.0    68    0.6   247     1.1   788.9    0.00 
 275    4:00   0.00   22.8    71    0.9   352     2.6   789.0    0.00 
 275    4:10   0.00   22.4    72    0.2   299     1.5   789.0    0.00 
 275    4:20   0.00   21.4    71    1.4   224     2.1   789.0    0.00 
 275    4:30   0.00   21.7    75    0.7   267     1.9   789.1    0.00 
 275    4:40   0.00   23.2    72    0.0     0     0.0   789.2    0.00 
 275    4:50   0.00   23.0    74    1.1   292     2.2   789.2    0.00 
 275    5:00   0.00   22.9    74    1.3   273     2.4   789.3    0.00 
 275    5:10   0.00   23.0    72    2.8   316     5.1   789.3    0.00 
 275    5:20   0.00   22.2    70    1.5   261     3.0   789.4    0.00 
 275    5:30   0.00   21.3    73    0.6   198     2.1   789.4    0.00 
 275    5:40   0.00   21.4    73    0.6   232     2.3   789.5    0.00 
 275    5:50   0.00   20.1    75    1.1   207     1.8   789.6    0.00 
 275    6:00   0.00   21.3    77    1.0   272     2.0   789.7    0.00 
 275    6:10   0.01   22.5    77    0.7   327     2.0   789.8    0.00 

Return to SNARL Reserve graphs page.


Western Regional Climate Center,wrcc@dri.edu